createdAt,value
2018-09-21T00:00:45.543Z,20.74
2018-09-21T00:03:13.259Z,20.80
2018-09-21T00:05:41.008Z,20.70
2018-09-21T00:08:08.726Z,20.61
2018-09-21T00:10:36.466Z,20.67
2018-09-21T00:13:04.190Z,20.65
2018-09-21T00:15:31.901Z,20.61
2018-09-21T00:17:59.648Z,20.66
2018-09-21T00:20:27.384Z,20.51
2018-09-21T00:22:55.378Z,20.53
2018-09-21T00:25:23.060Z,20.52
2018-09-21T00:27:50.763Z,20.36
2018-09-21T00:30:18.473Z,20.38
2018-09-21T00:32:46.204Z,20.35
2018-09-21T00:35:13.975Z,20.32
2018-09-21T00:37:41.974Z,20.33
2018-09-21T00:40:09.755Z,20.33
2018-09-21T00:42:37.466Z,20.35
2018-09-21T00:45:05.334Z,20.32
2018-09-21T00:47:33.046Z,20.28
2018-09-21T00:50:00.756Z,20.28
2018-09-21T00:52:28.504Z,20.25
2018-09-21T00:54:56.238Z,20.23
2018-09-21T00:57:24.018Z,20.26
2018-09-21T00:59:51.793Z,20.23
2018-09-21T01:02:19.578Z,20.18
2018-09-21T01:04:47.282Z,20.13
2018-09-21T01:07:15.242Z,20.15
2018-09-21T01:09:43.411Z,20.12
2018-09-21T01:12:11.126Z,20.08
2018-09-21T01:14:39.032Z,20.01
2018-09-21T01:17:06.762Z,19.98
2018-09-21T01:19:34.591Z,19.97
2018-09-21T01:22:02.955Z,19.96
2018-09-21T01:24:30.707Z,19.96
2018-09-21T01:26:58.435Z,19.92
2018-09-21T01:29:26.135Z,19.92
2018-09-21T01:31:53.818Z,19.90
2018-09-21T01:34:21.549Z,19.92
2018-09-21T01:36:49.267Z,19.87
2018-09-21T01:39:16.964Z,19.91
2018-09-21T01:41:48.227Z,19.89
2018-09-21T01:44:16.034Z,19.92
2018-09-21T01:46:44.059Z,19.91
2018-09-21T01:49:11.742Z,19.87
2018-09-21T01:51:39.484Z,19.84
2018-09-21T01:54:07.193Z,19.85
2018-09-21T01:56:34.906Z,19.86
2018-09-21T01:59:02.785Z,19.83
2018-09-21T02:01:30.490Z,19.71
2018-09-21T02:03:58.213Z,19.69
2018-09-21T02:06:25.953Z,19.60
2018-09-21T02:08:53.638Z,19.60
2018-09-21T02:11:21.363Z,19.55
2018-09-21T02:13:49.056Z,19.48
2018-09-21T02:16:16.785Z,19.41
2018-09-21T02:18:44.451Z,19.33
2018-09-21T02:21:12.174Z,19.27
2018-09-21T02:23:39.858Z,19.23
2018-09-21T02:26:07.566Z,19.25
2018-09-21T02:28:35.286Z,19.20
2018-09-21T02:31:03.071Z,19.18
2018-09-21T02:33:30.760Z,19.17
2018-09-21T02:35:58.439Z,19.18
2018-09-21T02:38:26.146Z,19.19
2018-09-21T02:40:54.262Z,19.19
2018-09-21T02:43:22.022Z,19.15
2018-09-21T02:45:49.746Z,19.17
2018-09-21T02:48:17.457Z,19.19
2018-09-21T02:50:45.176Z,19.07
2018-09-21T02:53:12.952Z,19.14
2018-09-21T02:55:40.652Z,19.08
2018-09-21T02:58:08.468Z,19.02
2018-09-21T03:00:36.389Z,19.03
2018-09-21T03:06:09.736Z,19.02
2018-09-21T03:08:37.457Z,18.96
2018-09-21T03:11:05.283Z,19.03
2018-09-21T03:13:32.953Z,18.97
2018-09-21T03:16:00.738Z,18.96
2018-09-21T03:18:28.452Z,18.96
2018-09-21T03:20:56.146Z,19.01
2018-09-21T03:23:30.606Z,19.02
2018-09-21T03:25:58.343Z,18.95
2018-09-21T03:28:26.067Z,18.97
2018-09-21T03:30:54.050Z,18.93
2018-09-21T03:33:21.771Z,18.93
2018-09-21T03:35:49.524Z,18.90
2018-09-21T03:38:17.278Z,18.90
2018-09-21T03:40:44.986Z,18.86
2018-09-21T03:43:12.760Z,18.87
2018-09-21T03:45:40.962Z,18.81
2018-09-21T03:48:08.654Z,18.83
2018-09-21T03:50:36.341Z,18.85
2018-09-21T03:53:04.080Z,18.81
2018-09-21T03:55:31.817Z,18.78
2018-09-21T03:57:59.523Z,18.82
2018-09-21T04:00:27.251Z,18.82
2018-09-21T04:02:55.387Z,18.78
2018-09-21T04:05:23.166Z,18.83
2018-09-21T04:07:50.904Z,18.81
2018-09-21T04:10:18.627Z,18.71
2018-09-21T04:12:46.352Z,18.67
2018-09-21T04:15:14.067Z,18.60
2018-09-21T04:17:41.798Z,18.54
2018-09-21T04:20:09.540Z,18.51
2018-09-21T04:22:37.616Z,18.42
2018-09-21T04:25:06.213Z,18.39
2018-09-21T04:27:33.943Z,18.37
2018-09-21T04:30:01.706Z,18.38
2018-09-21T04:32:29.459Z,18.39
2018-09-21T04:34:58.147Z,18.37
2018-09-21T04:37:25.931Z,18.28
2018-09-21T04:39:53.632Z,18.24
2018-09-21T04:42:21.315Z,18.20
2018-09-21T04:44:52.779Z,18.22
2018-09-21T04:47:20.606Z,18.26
2018-09-21T04:49:48.310Z,18.30
2018-09-21T04:52:50.868Z,18.24
2018-09-21T04:55:22.323Z,18.22
2018-09-21T04:57:50.039Z,18.19
2018-09-21T05:00:17.760Z,18.09
2018-09-21T05:02:45.534Z,18.06
2018-09-21T05:05:13.319Z,18.09
2018-09-21T05:07:41.072Z,18.07
2018-09-21T05:10:08.810Z,18.19
2018-09-21T05:12:36.614Z,18.22
2018-09-21T05:15:05.051Z,18.18
2018-09-21T05:17:32.903Z,18.23
2018-09-21T05:20:00.778Z,18.24
2018-09-21T05:22:28.461Z,18.25
2018-09-21T05:24:56.281Z,18.22
2018-09-21T05:27:24.068Z,18.32
2018-09-21T05:29:51.798Z,18.30
2018-09-21T05:32:19.499Z,18.29
2018-09-21T05:34:47.322Z,18.28
2018-09-21T05:37:15.283Z,18.26
2018-09-21T05:39:43.026Z,18.24
2018-09-21T05:42:10.695Z,18.29
2018-09-21T05:44:38.466Z,18.30
2018-09-21T05:47:09.695Z,18.19
2018-09-21T05:49:37.373Z,18.36
2018-09-21T05:52:05.084Z,18.34
2018-09-21T05:54:32.842Z,18.37
2018-09-21T05:57:00.638Z,18.44
2018-09-21T05:59:28.466Z,18.45
2018-09-21T06:01:56.233Z,18.47
2018-09-21T06:04:23.963Z,18.45
2018-09-21T06:06:51.637Z,18.52
2018-09-21T06:09:19.684Z,18.60
2018-09-21T06:11:47.443Z,18.61
2018-09-21T06:14:15.206Z,18.64
2018-09-21T06:16:43.022Z,18.72
2018-09-21T06:19:10.734Z,18.86
2018-09-21T06:21:38.453Z,18.88
2018-09-21T06:24:06.158Z,19.01
2018-09-21T06:26:34.275Z,19.14
2018-09-21T06:29:02.134Z,19.17
2018-09-21T06:31:29.883Z,19.33
2018-09-21T06:33:57.594Z,19.39
2018-09-21T06:36:25.607Z,19.49
2018-09-21T06:38:53.283Z,19.61
2018-09-21T06:41:21.002Z,19.71
2018-09-21T06:43:48.768Z,19.84
2018-09-21T06:46:16.474Z,20.03
2018-09-21T06:48:44.292Z,20.14
2018-09-21T06:51:12.069Z,20.24
2018-09-21T06:53:39.814Z,20.36
2018-09-21T06:56:07.547Z,20.54
2018-09-21T06:58:35.227Z,20.61
2018-09-21T07:01:02.973Z,20.81
2018-09-21T07:03:34.023Z,20.99
2018-09-21T07:06:01.774Z,21.07
2018-09-21T07:08:29.487Z,21.16
2018-09-21T07:10:57.207Z,21.19
2018-09-21T07:13:24.913Z,21.29
2018-09-21T07:15:52.661Z,21.32
2018-09-21T07:18:20.427Z,21.30
2018-09-21T07:20:48.114Z,21.31
2018-09-21T07:23:15.842Z,21.36
2018-09-21T07:25:43.563Z,21.37
2018-09-21T07:28:11.271Z,21.45
2018-09-21T07:30:38.983Z,21.56
2018-09-21T07:33:06.737Z,21.68
2018-09-21T07:35:34.448Z,21.84
2018-09-21T07:38:02.173Z,22.01
2018-09-21T07:40:29.905Z,22.21
2018-09-21T07:42:57.682Z,22.47
2018-09-21T07:45:25.376Z,22.57
2018-09-21T07:47:53.070Z,22.82
2018-09-21T07:50:20.824Z,23.12
2018-09-21T07:52:48.524Z,23.53
2018-09-21T07:55:16.658Z,23.76
2018-09-21T07:57:44.447Z,23.97
2018-09-21T08:00:12.288Z,24.26
2018-09-21T08:02:40.027Z,24.38
2018-09-21T08:05:07.833Z,24.84
2018-09-21T08:07:35.497Z,25.20
2018-09-21T08:10:03.714Z,25.48
2018-09-21T08:12:31.495Z,25.57
2018-09-21T08:14:59.391Z,25.55
2018-09-21T08:17:27.132Z,25.59
2018-09-21T08:19:55.064Z,25.71
2018-09-21T08:22:22.844Z,25.60
2018-09-21T08:24:50.649Z,25.87
2018-09-21T08:27:19.094Z,26.13
2018-09-21T08:29:47.369Z,26.51
2018-09-21T08:32:15.091Z,26.74
2018-09-21T08:34:43.071Z,26.81
2018-09-21T08:37:11.239Z,27.08
2018-09-21T08:39:38.895Z,27.33
2018-09-21T08:42:06.646Z,27.58
2018-09-21T08:44:34.451Z,27.86
2018-09-21T08:47:05.384Z,28.00
2018-09-21T08:49:33.150Z,28.29
2018-09-21T08:52:00.895Z,28.35
2018-09-21T08:54:28.682Z,28.73
2018-09-21T08:56:56.615Z,28.85
2018-09-21T08:59:24.634Z,28.52
2018-09-21T09:01:52.463Z,28.43
2018-09-21T09:04:20.174Z,28.57
2018-09-21T09:06:47.931Z,29.07
2018-09-21T09:09:15.810Z,29.36
2018-09-21T09:11:44.128Z,29.36
2018-09-21T09:14:11.831Z,28.82
2018-09-21T09:16:39.525Z,28.80
2018-09-21T09:19:07.226Z,28.85
2018-09-21T09:21:34.982Z,28.84
2018-09-21T09:24:02.694Z,28.72
2018-09-21T09:29:10.335Z,28.63
2018-09-21T09:31:38.267Z,28.65
2018-09-21T09:34:06.144Z,28.43
2018-09-21T09:36:33.876Z,28.09
2018-09-21T09:39:01.616Z,28.21
2018-09-21T09:41:29.665Z,28.19
2018-09-21T09:43:57.771Z,28.10
2018-09-21T09:46:25.500Z,28.19
2018-09-21T09:48:53.254Z,28.22
2018-09-21T09:51:21.023Z,28.37
2018-09-21T09:53:48.801Z,28.34
2018-09-21T09:56:16.551Z,27.86
2018-09-21T09:58:45.688Z,28.10
2018-09-21T10:01:13.411Z,28.18
2018-09-21T10:03:41.278Z,28.08
2018-09-21T10:06:09.071Z,28.05
2018-09-21T10:08:36.805Z,28.13
2018-09-21T10:11:05.613Z,27.85
2018-09-21T10:13:36.504Z,27.81
2018-09-21T10:16:04.421Z,27.63
2018-09-21T10:18:32.152Z,27.63
2018-09-21T10:20:59.892Z,27.63
2018-09-21T10:23:27.835Z,27.48
2018-09-21T10:25:55.638Z,27.48
2018-09-21T10:28:23.675Z,27.55
2018-09-21T10:30:51.324Z,27.54
2018-09-21T10:33:19.253Z,27.67
2018-09-21T10:35:47.035Z,27.63
2018-09-21T10:38:14.777Z,27.58
2018-09-21T10:40:42.474Z,27.66
2018-09-21T10:43:10.297Z,27.29
2018-09-21T10:45:37.994Z,27.38
2018-09-21T10:48:05.735Z,27.40
2018-09-21T10:50:33.427Z,27.39
2018-09-21T10:53:01.173Z,27.16
2018-09-21T10:55:29.235Z,27.09
2018-09-21T10:57:56.943Z,27.04
2018-09-21T11:00:24.662Z,27.06
2018-09-21T11:02:52.496Z,27.10
2018-09-21T11:05:20.203Z,27.17
2018-09-21T11:07:47.932Z,27.13
2018-09-21T11:10:15.651Z,27.28
2018-09-21T11:12:43.375Z,27.47
2018-09-21T11:15:11.087Z,27.52
2018-09-21T11:17:38.804Z,27.62
2018-09-21T11:20:06.532Z,27.86
2018-09-21T11:22:34.621Z,27.94
2018-09-21T11:25:02.419Z,27.94
2018-09-21T11:27:30.299Z,27.98
2018-09-21T11:29:58.007Z,28.09
2018-09-21T11:32:25.718Z,27.90
2018-09-21T11:34:53.426Z,28.08
2018-09-21T11:37:21.163Z,27.71
2018-09-21T11:39:48.964Z,27.79
2018-09-21T11:42:16.649Z,27.69
2018-09-21T11:44:44.355Z,27.68
2018-09-21T11:47:15.637Z,27.67
2018-09-21T11:49:43.238Z,28.09
2018-09-21T11:52:11.175Z,27.92
2018-09-21T11:54:38.934Z,27.49
2018-09-21T11:57:07.241Z,27.59
2018-09-21T11:59:35.052Z,27.48
2018-09-21T12:02:02.815Z,27.68
2018-09-21T12:04:30.712Z,27.68
2018-09-21T12:06:58.524Z,27.68
2018-09-21T12:09:26.499Z,27.79
2018-09-21T12:11:54.256Z,27.41
2018-09-21T12:14:21.963Z,27.13
2018-09-21T12:16:49.780Z,27.08
2018-09-21T12:19:21.451Z,27.31
2018-09-21T12:21:49.163Z,27.35
2018-09-21T12:24:16.936Z,27.17
2018-09-21T12:26:44.675Z,27.04
2018-09-21T12:29:12.488Z,27.24
2018-09-21T12:31:40.217Z,27.35
2018-09-21T12:34:07.944Z,27.17
2018-09-21T12:36:35.768Z,27.40
2018-09-21T12:39:07.042Z,27.32
2018-09-21T12:41:34.891Z,27.44
2018-09-21T12:44:02.728Z,27.57
2018-09-21T12:46:30.782Z,27.29
2018-09-21T12:49:05.079Z,27.40
2018-09-21T12:51:33.986Z,27.36
2018-09-21T12:54:01.959Z,27.37
2018-09-21T12:56:29.803Z,27.25
2018-09-21T12:58:57.722Z,27.17
2018-09-21T13:01:25.383Z,27.19
2018-09-21T13:03:53.139Z,27.17
2018-09-21T13:06:20.877Z,26.85
2018-09-21T13:08:48.607Z,26.98
2018-09-21T13:11:16.517Z,27.02
2018-09-21T13:13:44.272Z,27.04
2018-09-21T13:16:12.146Z,26.98
2018-09-21T13:18:40.159Z,26.84
2018-09-21T13:21:08.291Z,26.88
2018-09-21T13:23:36.114Z,26.97
2018-09-21T13:26:03.843Z,26.95
2018-09-21T13:28:31.646Z,26.89
2018-09-21T13:30:59.470Z,26.91
2018-09-21T13:33:27.232Z,26.86
2018-09-21T13:35:55.035Z,26.73
2018-09-21T13:38:22.838Z,26.68
2018-09-21T13:40:50.634Z,26.53
2018-09-21T13:43:18.377Z,26.48
2018-09-21T13:45:46.107Z,26.37
2018-09-21T13:48:13.899Z,26.35
2018-09-21T13:50:45.663Z,26.38
2018-09-21T13:53:13.378Z,26.28
2018-09-21T13:55:41.073Z,26.24
2018-09-21T13:58:08.821Z,26.22
2018-09-21T14:00:36.565Z,26.28
2018-09-21T14:03:04.324Z,26.38
2018-09-21T14:05:32.243Z,26.34
2018-09-21T14:08:00.000Z,26.35
2018-09-21T14:10:27.827Z,26.42
2018-09-21T14:12:55.671Z,26.17
2018-09-21T14:15:23.524Z,26.04
2018-09-21T14:17:51.471Z,25.92
2018-09-21T14:20:19.371Z,25.90
2018-09-21T14:22:47.105Z,25.88
2018-09-21T14:25:14.926Z,25.68
2018-09-21T14:27:42.610Z,25.82
2018-09-21T14:30:10.355Z,25.53
2018-09-21T14:32:38.352Z,25.43
2018-09-21T14:35:06.933Z,24.26
2018-09-21T14:37:34.751Z,23.02
2018-09-21T14:40:02.714Z,22.27
2018-09-21T14:42:30.507Z,21.61
2018-09-21T14:44:58.371Z,21.32
2018-09-21T14:47:26.135Z,20.92
2018-09-21T14:49:53.868Z,20.01
2018-09-21T14:52:21.669Z,20.34
2018-09-21T14:54:49.461Z,19.76
2018-09-21T14:57:17.181Z,19.78
2018-09-21T14:59:45.014Z,19.43
2018-09-21T15:02:12.709Z,18.76
2018-09-21T15:04:40.446Z,19.13
2018-09-21T15:07:08.164Z,19.15
2018-09-21T15:09:35.886Z,19.54
2018-09-21T15:12:03.719Z,18.84
2018-09-21T15:14:31.659Z,18.70
2018-09-21T15:16:59.454Z,18.33
2018-09-21T15:19:27.277Z,18.32
2018-09-21T15:21:55.043Z,18.70
2018-09-21T15:24:22.759Z,18.67
2018-09-21T15:29:53.779Z,18.70
2018-09-21T15:32:21.644Z,18.71
2018-09-21T15:34:49.379Z,18.74
2018-09-21T15:37:17.107Z,18.69
2018-09-21T15:39:44.811Z,18.66
2018-09-21T15:42:12.542Z,18.52
2018-09-21T15:44:40.633Z,18.08
2018-09-21T15:47:08.457Z,18.17
2018-09-21T15:49:36.178Z,18.08
2018-09-21T15:52:04.771Z,18.00
2018-09-21T15:54:32.499Z,17.88
2018-09-21T15:57:00.358Z,17.79
2018-09-21T15:59:28.459Z,17.78
2018-09-21T16:01:56.185Z,17.66
2018-09-21T16:04:23.958Z,17.60
2018-09-21T16:06:51.746Z,17.53
2018-09-21T16:09:19.540Z,17.58
2018-09-21T16:11:47.246Z,17.52
2018-09-21T16:14:15.279Z,17.48
2018-09-21T16:16:42.936Z,17.53
2018-09-21T16:19:10.664Z,17.44
2018-09-21T16:21:38.422Z,17.40
2018-09-21T16:24:06.445Z,17.31
2018-09-21T16:26:34.487Z,17.21
2018-09-21T16:29:02.271Z,17.15
2018-09-21T16:31:30.697Z,17.01
2018-09-21T16:33:58.576Z,16.88
2018-09-21T16:36:26.347Z,16.92
2018-09-21T16:38:54.044Z,16.89
2018-09-21T16:41:21.833Z,16.86
2018-09-21T16:43:49.471Z,16.73
2018-09-21T16:46:17.215Z,16.76
2018-09-21T16:48:44.926Z,16.65
2018-09-21T16:51:12.710Z,16.55
2018-09-21T16:53:40.370Z,16.51
2018-09-21T16:56:08.103Z,16.50
2018-09-21T16:58:35.779Z,16.52
2018-09-21T17:01:03.623Z,16.46
2018-09-21T17:03:31.320Z,16.41
2018-09-21T17:05:59.072Z,16.28
2018-09-21T17:08:26.746Z,16.22
2018-09-21T17:10:54.455Z,16.16
2018-09-21T17:13:22.189Z,16.14
2018-09-21T17:15:49.962Z,16.07
2018-09-21T17:18:17.771Z,16.16
2018-09-21T17:20:45.766Z,16.17
2018-09-21T17:23:13.467Z,16.21
2018-09-21T17:25:41.246Z,16.07
2018-09-21T17:28:08.982Z,16.08
2018-09-21T17:30:36.757Z,16.15
2018-09-21T17:33:04.911Z,16.15
2018-09-21T17:35:32.630Z,16.14
2018-09-21T17:38:00.311Z,16.07
2018-09-21T17:40:28.042Z,16.04
2018-09-21T17:42:55.718Z,15.98
2018-09-21T17:45:23.787Z,15.97
2018-09-21T17:47:51.511Z,15.85
2018-09-21T17:50:19.427Z,15.84
2018-09-21T17:52:47.214Z,15.82
2018-09-21T17:55:14.868Z,15.77
2018-09-21T17:57:42.715Z,15.78
2018-09-21T18:00:10.444Z,15.70
2018-09-21T18:02:38.158Z,15.65
2018-09-21T18:05:06.046Z,15.62
2018-09-21T18:07:33.914Z,15.57
2018-09-21T18:10:01.739Z,15.53
2018-09-21T18:12:29.590Z,15.57
2018-09-21T18:14:57.294Z,15.49
2018-09-21T18:17:25.059Z,15.54
2018-09-21T18:19:52.811Z,15.44
2018-09-21T18:22:20.623Z,15.41
2018-09-21T18:24:48.368Z,15.35
2018-09-21T18:27:16.099Z,15.25
2018-09-21T18:29:43.925Z,15.29
2018-09-21T18:32:11.642Z,15.28
2018-09-21T18:34:39.351Z,15.22
2018-09-21T18:37:07.087Z,15.19
2018-09-21T18:39:34.894Z,15.14
2018-09-21T18:42:02.707Z,15.13
2018-09-21T18:44:30.460Z,15.09
2018-09-21T18:46:58.210Z,15.03
2018-09-21T18:49:26.030Z,15.03
2018-09-21T18:51:53.809Z,14.95
2018-09-21T18:54:21.555Z,14.98
2018-09-21T18:56:49.307Z,14.95
2018-09-21T18:59:17.122Z,14.94
2018-09-21T19:01:44.947Z,14.83
2018-09-21T19:04:12.795Z,14.82
2018-09-21T19:06:40.573Z,14.80
2018-09-21T19:09:10.432Z,14.77
2018-09-21T19:11:38.403Z,14.77
2018-09-21T19:14:06.350Z,14.79
2018-09-21T19:16:34.073Z,14.81
2018-09-21T19:19:01.947Z,14.80
2018-09-21T19:21:29.767Z,14.76
2018-09-21T19:23:57.461Z,14.76
2018-09-21T19:26:25.512Z,14.72
2018-09-21T19:28:53.295Z,14.73
2018-09-21T19:31:21.122Z,14.70
2018-09-21T19:33:48.910Z,14.68
2018-09-21T19:36:16.743Z,14.64
2018-09-21T19:38:44.761Z,14.63
2018-09-21T19:41:12.424Z,14.69
2018-09-21T19:43:40.152Z,14.62
2018-09-21T19:46:07.871Z,14.63
2018-09-21T19:48:35.625Z,14.64
2018-09-21T19:51:03.434Z,14.58
2018-09-21T19:53:31.297Z,14.59
2018-09-21T19:55:59.155Z,14.58
2018-09-21T19:58:26.871Z,14.57
2018-09-21T20:00:54.663Z,14.58
2018-09-21T20:03:22.669Z,14.55
2018-09-21T20:05:50.573Z,14.55
2018-09-21T20:08:18.342Z,14.51
2018-09-21T20:10:46.112Z,14.54
2018-09-21T20:13:13.971Z,14.52
2018-09-21T20:15:41.710Z,14.59
2018-09-21T20:18:09.451Z,14.50
2018-09-21T20:20:37.167Z,14.51
2018-09-21T20:23:05.333Z,14.48
2018-09-21T20:25:33.019Z,14.40
2018-09-21T20:28:00.771Z,14.41
2018-09-21T20:30:34.287Z,14.40
2018-09-21T20:33:07.886Z,14.41
2018-09-21T20:35:35.980Z,14.51
2018-09-21T20:38:03.667Z,14.43
2018-09-21T20:41:10.866Z,14.41
2018-09-21T20:43:43.478Z,14.41
2018-09-21T20:46:11.262Z,14.40
2018-09-21T20:48:39.115Z,14.39
2018-09-21T20:51:06.986Z,14.39
2018-09-21T20:53:34.908Z,14.40
2018-09-21T20:56:27.798Z,14.39
2018-09-21T20:58:58.017Z,14.40
2018-09-21T21:01:25.848Z,14.42
2018-09-21T21:03:53.775Z,14.37
2018-09-21T21:06:21.454Z,14.38
2018-09-21T21:08:49.298Z,14.43
2018-09-21T21:11:17.047Z,14.45
2018-09-21T21:13:45.249Z,14.39
2018-09-21T21:16:13.045Z,14.40
2018-09-21T21:18:40.801Z,14.41
2018-09-21T21:21:09.344Z,14.43
2018-09-21T21:23:37.123Z,14.47
2018-09-21T21:26:04.953Z,14.45
2018-09-21T21:28:32.763Z,14.45
2018-09-21T21:31:00.707Z,14.45
2018-09-21T21:33:28.523Z,14.44
2018-09-21T21:35:56.618Z,14.40
2018-09-21T21:38:24.770Z,14.44
2018-09-21T21:40:52.946Z,14.42
2018-09-21T21:43:20.986Z,14.46
2018-09-21T21:45:48.897Z,14.49
2018-09-21T21:48:16.907Z,14.35
2018-09-21T21:50:44.759Z,14.40
2018-09-21T21:53:12.868Z,14.38
2018-09-21T21:55:40.711Z,14.43
2018-09-21T21:58:08.595Z,14.44
2018-09-21T22:00:42.373Z,14.44
2018-09-21T22:03:10.491Z,14.44
2018-09-21T22:05:38.316Z,14.40
2018-09-21T22:08:06.128Z,14.43
2018-09-21T22:10:33.907Z,14.36
2018-09-21T22:13:07.633Z,14.35
2018-09-21T22:15:35.446Z,14.28
2018-09-21T22:18:03.202Z,14.30
2018-09-21T22:20:30.960Z,14.17
2018-09-21T22:22:58.722Z,14.27
2018-09-21T22:25:26.491Z,14.38
2018-09-21T22:27:54.442Z,14.34
2018-09-21T22:30:22.179Z,14.34
2018-09-21T22:32:49.975Z,14.39
2018-09-21T22:35:17.674Z,14.42
2018-09-21T22:37:46.801Z,14.42
2018-09-21T22:40:14.751Z,14.34
2018-09-21T22:42:42.508Z,14.36
2018-09-21T22:45:10.348Z,14.31
2018-09-21T22:47:38.086Z,14.33
2018-09-21T22:50:06.025Z,14.39
2018-09-21T22:52:33.799Z,14.29
2018-09-21T22:55:01.756Z,14.24
2018-09-21T22:57:29.602Z,14.23
2018-09-21T22:59:57.423Z,14.13
2018-09-21T23:02:25.164Z,14.10
2018-09-21T23:04:52.985Z,14.06
2018-09-21T23:07:20.763Z,14.03
2018-09-21T23:09:48.961Z,14.07
2018-09-21T23:12:16.792Z,14.08
2018-09-21T23:14:44.546Z,14.01
2018-09-21T23:17:12.665Z,14.02
2018-09-21T23:19:40.537Z,14.02
2018-09-21T23:22:12.058Z,14.05
2018-09-21T23:24:39.864Z,14.05
2018-09-21T23:27:07.746Z,14.05
2018-09-21T23:29:35.588Z,13.99
2018-09-21T23:32:03.355Z,13.97
2018-09-21T23:34:31.141Z,13.93
2018-09-21T23:36:58.905Z,13.94
2018-09-21T23:39:26.755Z,13.90
2018-09-21T23:41:54.625Z,13.86
2018-09-21T23:44:22.394Z,13.86
2018-09-21T23:46:50.203Z,13.86
2018-09-21T23:49:18.048Z,13.88
2018-09-21T23:51:45.883Z,13.91
2018-09-21T23:54:13.719Z,13.87
2018-09-21T23:56:41.548Z,13.79
2018-09-21T23:59:16.052Z,13.78
